SILO ALERT LOG
| Silo ID | Alert Type | Alert Message | Silo Type | Points | Depth (mm) | Strength | Temperature (°C) | Humidity (%) | Height (mm) | Volume (㎥) | Weight (t) | Flag | Time |
|---|---|---|---|---|---|---|---|---|---|---|---|---|---|
| WJWJR01 | Humidity | 습도센서 측정값이 80% 초과 | 평 | 50 | 6769 | 1837 | 22 | 84.6 | 870 | 98.445 | 62.237 | 0 | 2026-05-31 00:25:48.000 |
| WJWJR01 | Humidity | 습도센서 측정값이 80% 초과 | 평 | 48 | 6780 | 1865 | 22.8 | 83 | 859 | 97.153 | 61.42 | 0 | 2026-05-30 23:25:51.000 |
| WJWJR01 | Humidity | 습도센서 측정값이 80% 초과 | 평 | 50 | 6744 | 1808 | 23.9 | 80.5 | 895 | 101.266 | 64.02 | 0 | 2026-05-30 22:25:52.000 |
| WJWJR05 | Humidity | 습도센서 측정값이 80% 초과 | 평 | 79 | 5818 | 2305 | 23.9 | 82.6 | 1911 | 216.217 | 136.692 | 0 | 2026-05-30 11:25:56.000 |
| WJWJR05 | Humidity | 습도센서 측정값이 80% 초과 | 평 | 77 | 5697 | 2309 | 22.6 | 84.5 | 2032 | 229.92 | 145.355 | 0 | 2026-05-30 10:25:55.000 |
| WJWJR05 | Humidity | 습도센서 측정값이 80% 초과 | 평 | 78 | 5692 | 2217 | 21.3 | 84.9 | 2037 | 230.444 | 145.687 | 0 | 2026-05-30 09:25:52.000 |
| WJWJR01 | Humidity | 습도센서 측정값이 80% 초과 | 평 | 49 | 6873 | 1847 | 21.1 | 83.5 | 766 | 86.737 | 54.835 | 0 | 2026-05-30 09:25:47.000 |
| WJWJR05 | Humidity | 습도센서 측정값이 80% 초과 | 평 | 78 | 5880 | 2197 | 20.7 | 85.3 | 1849 | 209.151 | 132.225 | 0 | 2026-05-30 08:25:54.000 |
| WJWJR01 | Humidity | 습도센서 측정값이 80% 초과 | 평 | 48 | 6825 | 1858 | 19.6 | 87.3 | 814 | 92.159 | 58.263 | 0 | 2026-05-30 08:25:49.000 |
| WJWJR05 | Humidity | 습도센서 측정값이 80% 초과 | 평 | 76 | 5720 | 2149 | 20.5 | 85.4 | 2009 | 227.244 | 143.664 | 0 | 2026-05-30 07:25:56.000 |
| WJWJR01 | Humidity | 습도센서 측정값이 80% 초과 | 평 | 50 | 6826 | 1815 | 18.5 | 89.8 | 813 | 92.043 | 58.189 | 0 | 2026-05-30 07:25:50.000 |
| WJWJR05 | Humidity | 습도센서 측정값이 80% 초과 | 평 | 76 | 5941 | 2215 | 20.7 | 85.2 | 1788 | 202.265 | 127.872 | 0 | 2026-05-30 06:26:00.000 |
| WJWJR01 | Humidity | 습도센서 측정값이 80% 초과 | 평 | 50 | 6769 | 1866 | 18.3 | 90.1 | 870 | 98.499 | 62.271 | 0 | 2026-05-30 06:25:52.000 |
| WJWJR05 | Humidity | 습도센서 측정값이 80% 초과 | 평 | 76 | 5870 | 2186 | 21 | 84.9 | 1859 | 210.323 | 132.966 | 0 | 2026-05-30 05:25:53.000 |
| WJWJR01 | Humidity | 습도센서 측정값이 80% 초과 | 평 | 48 | 6780 | 1812 | 18.5 | 89.6 | 859 | 97.182 | 61.439 | 0 | 2026-05-30 05:25:51.000 |
| WJWJR01 | Humidity | 습도센서 측정값이 80% 초과 | 평 | 47 | 6929 | 1819 | 19 | 88.9 | 710 | 80.332 | 50.786 | 0 | 2026-05-30 04:25:57.000 |
| WJWJR05 | Humidity | 습도센서 측정값이 80% 초과 | 평 | 78 | 5818 | 2231 | 21.4 | 84.4 | 1911 | 216.13 | 136.637 | 0 | 2026-05-30 04:25:55.000 |
| WJWJR05 | Humidity | 습도센서 측정값이 80% 초과 | 평 | 78 | 5858 | 2284 | 21.7 | 83.9 | 1871 | 211.706 | 133.841 | 0 | 2026-05-30 03:26:01.000 |
| WJWJR01 | Humidity | 습도센서 측정값이 80% 초과 | 평 | 49 | 6787 | 1896 | 19.4 | 88.3 | 852 | 96.389 | 60.937 | 0 | 2026-05-30 03:25:51.000 |
| WJWJR05 | Humidity | 습도센서 측정값이 80% 초과 | 평 | 77 | 5830 | 2229 | 22.2 | 83.2 | 1899 | 214.861 | 135.835 | 0 | 2026-05-30 02:25:56.000 |
[첫 페이지] [56] [57] [58] [59] 60 [61] [62] [63] [64] [마지막 페이지]